ANZ022M NZNR-NZAA
Flight info
| Callsign | ANZ022M |
|---|---|
| Flight time | N/A |
| Altitude | 19000 |
| Route | BOVSA H372 MOOSE Y601 DODKU Q132 MERAS Q119 AA |
| Aircraft | AT76/M-SDFGIRY/S |
Departure
| Time | 2026-04-19 04:19 |
|---|---|
| Airport | Hawke's Bay Airport (NZNR) |
Arrival
| Time | N/A |
|---|---|
| Airport | Auckland International Airport (NZAA) |
| Time | Latitude | Longitude | Altitude | Speed | Heading |
|---|---|---|---|---|---|
| 2026-04-19 03:59 | -39.46574 | 176.87209 | 14 ft | 0 kts | 203° |
| 2026-04-19 04:12 | -39.46576 | 176.87207 | 10 ft | 3 kts | 204° |
| 2026-04-19 04:12 | -39.46580 | 176.87180 | 10 ft | 4 kts | 286° |
| 2026-04-19 04:12 | -39.46590 | 176.87142 | 10 ft | 4 kts | 218° |
| 2026-04-19 04:12 | -39.46632 | 176.87111 | 10 ft | 6 kts | 211° |
| 2026-04-19 04:13 | -39.46669 | 176.87072 | 10 ft | 9 kts | 236° |
| 2026-04-19 04:13 | -39.46672 | 176.86988 | 10 ft | 10 kts | 277° |
| 2026-04-19 04:13 | -39.46668 | 176.86921 | 10 ft | 7 kts | 275° |
| 2026-04-19 04:13 | -39.46665 | 176.86878 | 10 ft | 0 kts | 274° |
| 2026-04-19 04:14 | -39.46664 | 176.86875 | 10 ft | 2 kts | 274° |
| 2026-04-19 04:14 | -39.46662 | 176.86839 | 8 ft | 6 kts | 275° |
| 2026-04-19 04:14 | -39.46659 | 176.86772 | 9 ft | 9 kts | 261° |
| 2026-04-19 04:15 | -39.46716 | 176.86747 | 9 ft | 11 kts | 181° |
| 2026-04-19 04:15 | -39.46805 | 176.86737 | 9 ft | 14 kts | 185° |
| 2026-04-19 04:15 | -39.46910 | 176.86725 | 9 ft | 16 kts | 185° |
| 2026-04-19 04:15 | -39.47017 | 176.86713 | 9 ft | 16 kts | 185° |
| 2026-04-19 04:16 | -39.47125 | 176.86701 | 9 ft | 15 kts | 185° |
| 2026-04-19 04:16 | -39.47234 | 176.86689 | 9 ft | 16 kts | 185° |
| 2026-04-19 04:16 | -39.47346 | 176.86677 | 10 ft | 16 kts | 185° |
| 2026-04-19 04:16 | -39.47459 | 176.86664 | 8 ft | 16 kts | 185° |
| 2026-04-19 04:17 | -39.47572 | 176.86651 | 8 ft | 16 kts | 185° |
| 2026-04-19 04:17 | -39.47686 | 176.86638 | 8 ft | 16 kts | 188° |
| 2026-04-19 04:17 | -39.47749 | 176.86616 | 8 ft | 2 kts | 128° |
| 2026-04-19 04:17 | -39.47746 | 176.86632 | 8 ft | 2 kts | 50° |
| 2026-04-19 04:18 | -39.47675 | 176.86641 | 8 ft | 31 kts | 5° |
| 2026-04-19 04:18 | -39.47254 | 176.86688 | 9 ft | 90 kts | 5° |
| 2026-04-19 04:18 | -39.46445 | 176.86774 | 45 ft | 136 kts | 5° |
| 2026-04-19 04:18 | -39.45479 | 176.86872 | 512 ft | 143 kts | 5° |
| 2026-04-19 04:19 | -39.44511 | 176.86905 | 1289 ft | 129 kts | 349° |
| 2026-04-19 04:19 | -39.43747 | 176.86336 | 1921 ft | 135 kts | 322° |
| 2026-04-19 04:19 | -39.43023 | 176.85529 | 2535 ft | 136 kts | 324° |
| 2026-04-19 04:19 | -39.42300 | 176.84851 | 3265 ft | 133 kts | 321° |